Time;durP1;ratioP1;P1;durP2;ratioP2;P2;SDS_P1;SDS_P2;PMS_P1;PMS_P2;Temp;Humidity;BMP_temperature;BMP_pressure;BME280_temperature;BME280_humidity;BME280_pressure;Samples;Min_cycle;Max_cycle;Signal;HPM_P1;HPM_P2
2021/01/15 00:01:21;;;;;;;34.47;16.03;;;;;;;-2.55;90.37;100131.59;1755403;81;21085;-58
2021/01/15 00:03:50;;;;;;;35.98;16.48;;;;;;;-2.56;90.48;100126.31;1755791;81;21186;-57
2021/01/15 00:06:25;;;;;;;35.13;15.43;;;;;;;-2.59;90.52;100121.48;1755498;81;21144;-57
2021/01/15 00:08:53;;;;;;;35.47;14.83;;;;;;;-2.61;90.76;100122.36;1755643;81;21160;-57
2021/01/15 00:11:28;;;;;;;34.03;15.40;;;;;;;-2.64;90.91;100124.50;1755587;81;21163;-57
2021/01/15 00:13:56;;;;;;;31.17;15.23;;;;;;;-2.65;90.95;100121.89;1784923;80;21180;-58
2021/01/15 00:16:28;;;;;;;32.10;14.73;;;;;;;-2.69;91.09;100128.84;1785149;80;21071;-58
2021/01/15 00:18:58;;;;;;;32.67;15.50;;;;;;;-2.68;91.34;100125.35;1785046;80;21121;-59
2021/01/15 00:21:33;;;;;;;33.67;15.73;;;;;;;-2.71;91.43;100120.08;1785151;80;21227;-58
2021/01/15 00:24:05;;;;;;;33.67;14.58;;;;;;;-2.71;91.50;100121.81;1785109;80;21079;-58
2021/01/15 00:26:34;;;;;;;34.20;14.33;;;;;;;-2.72;91.50;100127.50;1785004;80;21000;-58
2021/01/15 00:29:02;;;;;;;38.00;16.00;;;;;;;-2.75;91.63;100127.03;1784965;80;21066;-58
2021/01/15 00:31:36;;;;;;;35.57;15.77;;;;;;;-2.75;91.63;100140.60;1785107;80;21058;-59
2021/01/15 00:34:07;;;;;;;33.67;15.10;;;;;;;-2.77;91.75;100144.92;1785142;80;21558;-59
2021/01/15 00:36:36;;;;;;;33.70;16.00;;;;;;;-2.79;91.88;100145.34;1785264;80;21498;-58
2021/01/15 00:39:05;;;;;;;32.37;14.93;;;;;;;-2.82;91.88;100145.32;1766851;81;21080;-58
2021/01/15 00:41:38;;;;;;;30.53;14.90;;;;;;;-2.84;91.95;100158.44;1755672;81;21070;-58
2021/01/15 00:44:07;;;;;;;23.20;11.57;;;;;;;-2.84;92.11;100151.88;1767101;81;21111;-58
2021/01/15 00:46:35;;;;;;;38.87;16.27;;;;;;;-2.84;92.16;100150.98;1755671;81;21041;-58
2021/01/15 00:49:06;;;;;;;43.57;17.00;;;;;;;-2.88;92.13;100149.65;1767018;80;21391;-57
2021/01/15 00:51:34;;;;;;;36.20;16.23;;;;;;;-2.90;92.20;100144.82;1755501;81;21138;-59
2021/01/15 00:54:06;;;;;;;45.10;16.87;;;;;;;-2.91;92.30;100153.55;1742319;82;21158;-58
2021/01/15 00:56:34;;;;;;;54.67;19.27;;;;;;;-2.94;92.32;100143.03;1725275;82;21087;-58
2021/01/15 00:59:04;;;;;;;44.80;18.07;;;;;;;-2.96;92.31;100153.95;1742341;81;21070;-57
2021/01/15 01:01:36;;;;;;;45.67;18.40;;;;;;;-2.97;92.33;100148.67;1739153;82;21809;-58
2021/01/15 01:04:07;;;;;;;47.53;18.77;;;;;;;-3.00;92.45;100142.95;1720346;82;21535;-58
2021/01/15 01:06:35;;;;;;;47.10;18.73;;;;;;;-3.02;92.56;100153.44;1739557;82;21193;-57
2021/01/15 01:09:04;;;;;;;43.87;19.97;;;;;;;-3.02;92.58;100151.23;1739317;82;21138;-57
2021/01/15 01:11:32;;;;;;;47.90;20.67;;;;;;;-3.03;92.62;100150.78;1739421;82;21134;-57
2021/01/15 01:14:00;;;;;;;41.50;18.40;;;;;;;-3.06;92.61;100145.52;1739312;82;21490;-58
2021/01/15 01:16:28;;;;;;;43.40;17.87;;;;;;;-3.09;92.59;100154.66;1739332;82;21142;-57
2021/01/15 01:18:57;;;;;;;42.80;18.10;;;;;;;-3.11;92.66;100149.84;1739305;81;21150;-58
2021/01/15 01:21:25;;;;;;;42.70;18.30;;;;;;;-3.13;92.76;100148.49;1739428;82;21062;-58
2021/01/15 01:23:52;;;;;;;44.40;19.07;;;;;;;-3.10;92.99;100152.91;1739444;82;21478;-57
2021/01/15 01:26:20;;;;;;;44.47;18.57;;;;;;;-3.11;93.08;100159.02;1739370;82;21483;-58
2021/01/15 01:28:47;;;;;;;41.87;17.10;;;;;;;-3.11;93.15;100156.39;1739263;81;21150;-58
2021/01/15 01:31:16;;;;;;;35.20;16.73;;;;;;;-3.15;93.12;100161.16;1739516;82;21100;-58
2021/01/15 01:33:44;;;;;;;40.03;16.57;;;;;;;-3.20;93.10;100159.78;1739285;82;21074;-57
2021/01/15 01:36:12;;;;;;;35.17;15.40;;;;;;;-3.24;93.16;100152.75;1739429;82;21070;-57
2021/01/15 01:38:42;;;;;;;42.00;17.93;;;;;;;-3.27;93.27;100152.27;1767833;81;21703;-57
2021/01/15 01:41:10;;;;;;;35.43;16.53;;;;;;;-3.27;93.43;100160.13;1770735;81;21490;-58
2021/01/15 01:43:38;;;;;;;38.47;17.13;;;;;;;-3.30;93.41;100164.03;1770953;81;20991;-57
2021/01/15 01:46:07;;;;;;;33.73;16.37;;;;;;;-3.37;93.28;100159.14;1770847;81;21223;-59
2021/01/15 01:48:35;;;;;;;38.67;17.57;;;;;;;-3.41;93.27;100166.52;1770980;81;21689;-57
2021/01/15 01:51:03;;;;;;;40.30;17.67;;;;;;;-3.43;93.28;100166.03;1770897;81;21220;-57
2021/01/15 01:53:32;;;;;;;42.43;18.90;;;;;;;-3.48;93.39;100160.31;1778307;79;21164;-57
2021/01/15 01:56:03;;;;;;;47.07;18.70;;;;;;;-3.49;93.50;100162.48;1759746;81;21110;-58
2021/01/15 01:58:33;;;;;;;49.13;19.53;;;;;;;-3.47;93.84;100169.94;1776600;80;21067;-57
2021/01/15 02:01:04;;;;;;;40.17;18.30;;;;;;;-3.49;93.99;100169.03;1759729;81;21065;-57
2021/01/15 02:03:32;;;;;;;39.87;17.10;;;;;;;-3.53;94.10;100162.00;1776732;80;22341;-58
2021/01/15 02:06:00;;;;;;;32.10;16.30;;;;;;;-3.58;94.14;100165.00;1759700;81;21495;-57
2021/01/15 02:08:28;;;;;;;34.67;15.73;;;;;;;-3.67;94.05;100160.92;1776555;80;21566;-57
2021/01/15 02:11:16;;;;;;;29.83;14.77;;;;;;;-3.72;94.13;100157.37;1759785;81;21604;-57
2021/01/15 02:14:14;;;;;;;28.63;13.33;;;;;;;-3.76;94.17;100167.81;1776635;80;21472;-57
2021/01/15 02:16:41;;;;;;;27.40;13.70;;;;;;;-3.78;94.31;100163.39;1759798;81;21213;-58
2021/01/15 02:19:40;;;;;;;37.27;15.47;;;;;;;-3.80;94.38;100172.56;1776548;80;21111;-58
2021/01/15 02:22:19;;;;;;;38.30;16.40;;;;;;;-3.82;94.38;100174.28;1759797;81;21113;-57
2021/01/15 02:25:23;;;;;;;33.50;15.03;;;;;;;-3.89;94.29;100167.17;1776684;80;21122;-59
2021/01/15 02:28:24;;;;;;;25.93;12.57;;;;;;;-4.04;93.91;100175.27;1758939;81;21137;-58
2021/01/15 02:31:21;;;;;;;27.27;12.63;;;;;;;-4.18;93.96;100170.23;1756414;80;21374;-59
2021/01/15 02:34:36;;;;;;;26.17;12.57;;;;;;;-4.24;94.06;100172.77;1873220;76;22712;-58
2021/01/15 02:37:47;;;;;;;22.77;11.03;;;;;;;-4.37;94.05;100183.46;1837949;78;21047;-58
2021/01/15 02:40:51;;;;;;;23.97;12.20;;;;;;;-4.46;94.05;100185.05;1828150;78;20943;-58
2021/01/15 02:43:19;;;;;;;25.83;12.07;;;;;;;-4.54;94.07;100195.81;1822275;77;20995;-57
2021/01/15 02:45:48;;;;;;;25.43;12.33;;;;;;;-4.61;94.00;100192.20;1828158;77;20992;-57
2021/01/15 02:48:16;;;;;;;26.87;13.07;;;;;;;-4.66;93.94;100187.33;1828138;78;20873;-58
2021/01/15 02:50:48;;;;;;;28.23;13.67;;;;;;;-4.73;93.97;100182.84;1828125;78;21029;-58
2021/01/15 02:53:16;;;;;;;29.30;14.53;;;;;;;-4.76;94.08;100180.14;1828167;78;21531;-58
2021/01/15 02:55:45;;;;;;;31.53;14.33;;;;;;;-4.75;94.31;100181.94;1828094;78;20881;-58
2021/01/15 02:58:13;;;;;;;31.53;14.13;;;;;;;-4.72;94.50;100181.09;1828154;78;20984;-58
2021/01/15 03:00:41;;;;;;;29.37;14.30;;;;;;;-4.68;94.76;100177.27;1828210;78;21553;-58
2021/01/15 03:03:30;;;;;;;31.10;14.57;;;;;;;-4.58;95.13;100177.41;1828196;78;21481;-57
2021/01/15 03:06:13;;;;;;;34.47;15.47;;;;;;;-4.50;95.41;100179.75;1828190;78;21559;-58
2021/01/15 03:08:40;;;;;;;35.40;16.20;;;;;;;-4.42;95.70;100170.28;1827376;78;21019;-58
2021/01/15 03:11:08;;;;;;;42.23;17.40;;;;;;;-4.32;95.94;100181.34;1828173;77;21182;-58
2021/01/15 03:13:36;;;;;;;35.27;15.40;;;;;;;-4.25;96.15;100185.40;1828001;78;21077;-58
2021/01/15 03:16:05;;;;;;;29.87;14.27;;;;;;;-4.17;96.31;100189.02;1810015;78;21030;-59
2021/01/15 03:18:32;;;;;;;32.90;14.57;;;;;;;-4.13;96.32;100183.41;1828144;78;21412;-58
2021/01/15 03:21:01;;;;;;;32.03;14.10;;;;;;;-4.11;96.24;100191.72;1828160;78;21142;-59
2021/01/15 03:23:35;;;;;;;28.00;13.57;;;;;;;-4.12;96.14;100183.86;1828084;77;21047;-58
2021/01/15 03:26:03;;;;;;;27.32;13.75;;;;;;;-4.11;96.11;100186.48;1828169;78;21055;-58
2021/01/15 03:28:30;;;;;;;27.57;11.83;;;;;;;-4.10;96.12;100192.17;1828179;78;20960;-59
2021/01/15 03:30:58;;;;;;;30.30;14.53;;;;;;;-4.11;96.02;100194.34;1828076;78;21377;-58
2021/01/15 03:33:25;;;;;;;32.37;14.70;;;;;;;-4.12;95.79;100195.64;1830016;78;21062;-58
2021/01/15 03:35:53;;;;;;;33.07;14.30;;;;;;;-4.18;95.54;100197.72;1831281;78;20916;-59
2021/01/15 03:38:21;;;;;;;34.23;14.87;;;;;;;-4.23;95.37;100196.77;1845688;77;21099;-58
2021/01/15 03:40:49;;;;;;;32.70;15.20;;;;;;;-4.29;95.21;100189.69;1849803;77;21135;-58
2021/01/15 03:43:18;;;;;;;34.60;15.07;;;;;;;-4.31;95.15;100186.17;1849782;77;21691;-59
2021/01/15 03:45:47;;;;;;;33.03;14.23;;;;;;;-4.30;95.17;100198.84;1849177;77;20894;-58
2021/01/15 03:48:15;;;;;;;31.30;14.87;;;;;;;-4.32;95.06;100203.59;1849255;77;21068;-59
2021/01/15 03:50:43;;;;;;;41.87;16.43;;;;;;;-4.35;94.92;100194.83;1849260;77;20965;-58
2021/01/15 03:53:17;;;;;;;35.47;14.03;;;;;;;-4.38;94.75;100203.50;1849265;77;21037;-58
2021/01/15 03:55:45;;;;;;;36.35;15.23;;;;;;;-4.41;94.63;100199.53;1849411;77;21352;-58
2021/01/15 03:58:12;;;;;;;35.13;15.57;;;;;;;-4.46;94.42;100194.65;1849127;77;20977;-58
2021/01/15 04:00:40;;;;;;;37.03;16.67;;;;;;;-4.51;94.27;100200.23;1849252;77;20969;-59
2021/01/15 04:03:08;;;;;;;31.03;14.97;;;;;;;-4.54;94.41;100199.73;1849158;77;21382;-59
2021/01/15 04:05:36;;;;;;;32.73;14.37;;;;;;;-4.57;94.49;100206.64;1849253;77;21064;-59
2021/01/15 04:08:05;;;;;;;34.33;15.57;;;;;;;-4.64;94.59;100203.92;1849239;77;21298;-59
2021/01/15 04:10:33;;;;;;;36.17;15.77;;;;;;;-4.67;94.75;100211.72;1849235;77;21449;-59
2021/01/15 04:13:01;;;;;;;38.27;15.57;;;;;;;-4.68;94.91;100211.27;1849163;77;21115;-60
2021/01/15 04:15:29;;;;;;;34.77;16.20;;;;;;;-4.68;94.96;100213.89;1849131;77;21004;-59
2021/01/15 04:18:01;;;;;;;35.83;16.83;;;;;;;-4.67;94.92;100210.41;1849322;77;21032;-59
2021/01/15 04:20:29;;;;;;;30.03;13.73;;;;;;;-4.65;94.93;100212.63;1849294;77;22412;-59
2021/01/15 04:22:56;;;;;;;36.93;16.50;;;;;;;-4.63;94.87;100216.16;1849263;77;21218;-60
2021/01/15 04:25:24;;;;;;;40.13;16.77;;;;;;;-4.63;94.85;100213.53;1849198;77;21052;-60
2021/01/15 04:27:52;;;;;;;36.53;15.67;;;;;;;-4.61;94.84;100215.75;1849242;77;21016;-60
2021/01/15 04:30:20;;;;;;;36.17;16.00;;;;;;;-4.57;94.90;100222.34;1849190;77;21012;-59
2021/01/15 04:32:48;;;;;;;38.77;16.27;;;;;;;-4.54;95.00;100217.16;1846675;77;21587;-60
2021/01/15 04:35:18;;;;;;;34.43;16.27;;;;;;;-4.55;94.90;100224.56;1840277;78;20946;-59
2021/01/15 04:37:47;;;;;;;33.50;14.93;;;;;;;-4.58;95.00;100230.64;1831907;78;21059;-59
2021/01/15 04:40:16;;;;;;;36.60;16.43;;;;;;;-4.58;95.12;100231.94;1824172;78;21051;-60
2021/01/15 04:42:46;;;;;;;35.90;16.57;;;;;;;-4.56;95.21;100239.80;1824306;78;21039;-61
2021/01/15 04:45:16;;;;;;;40.57;16.40;;;;;;;-4.52;95.31;100239.03;1824253;78;21265;-60
2021/01/15 04:47:47;;;;;;;37.70;16.07;;;;;;;-4.48;95.28;100243.47;1824146;78;20928;-60
2021/01/15 04:50:16;;;;;;;33.23;15.63;;;;;;;-4.44;95.32;100237.42;1824325;78;21172;-59
2021/01/15 04:52:52;;;;;;;37.50;16.27;;;;;;;-4.39;95.47;100246.67;1824220;78;21196;-60
2021/01/15 04:55:24;;;;;;;34.27;15.65;;;;;;;-4.37;95.61;100251.06;1824428;78;21554;-60
2021/01/15 04:57:53;;;;;;;35.07;15.83;;;;;;;-4.34;95.64;100258.97;1824221;78;22323;-60
2021/01/15 05:00:25;;;;;;;35.20;17.20;;;;;;;-4.30;95.60;100267.77;1824305;78;21550;-60
2021/01/15 05:02:53;;;;;;;37.40;17.17;;;;;;;-4.32;95.32;100278.20;1824270;78;20996;-60
2021/01/15 05:05:26;;;;;;;36.80;16.90;;;;;;;-4.38;95.01;100279.41;1824285;78;21098;-59
2021/01/15 05:08:14;;;;;;;35.23;17.00;;;;;;;-4.42;94.85;100277.59;1824328;78;21066;-60
2021/01/15 05:10:44;;;;;;;37.10;16.53;;;;;;;-4.47;94.76;100279.24;1824284;78;21425;-60
2021/01/15 05:13:14;;;;;;;33.73;16.10;;;;;;;-4.50;94.80;100277.88;1824257;78;21134;-60
2021/01/15 05:15:49;;;;;;;34.87;15.97;;;;;;;-4.50;94.80;100283.98;1824221;77;20885;-60
2021/01/15 05:18:19;;;;;;;36.23;16.00;;;;;;;-4.53;94.73;100281.72;1824412;78;21007;-60
2021/01/15 05:20:47;;;;;;;37.83;15.73;;;;;;;-4.56;94.68;100284.28;1824320;78;21543;-59
2021/01/15 05:23:15;;;;;;;34.30;16.37;;;;;;;-4.59;94.65;100281.20;1824275;78;21352;-61
2021/01/15 05:25:47;;;;;;;38.17;16.70;;;;;;;-4.63;94.63;100284.17;1824238;78;21055;-60
2021/01/15 05:28:16;;;;;;;36.87;16.20;;;;;;;-4.65;94.60;100283.27;1824284;78;21051;-60
2021/01/15 05:30:45;;;;;;;39.50;15.37;;;;;;;-4.69;94.53;100287.98;1824245;77;21503;-60
2021/01/15 05:33:15;;;;;;;36.47;15.37;;;;;;;-4.70;94.58;100294.48;1826080;77;21459;-60
2021/01/15 05:35:47;;;;;;;39.00;16.43;;;;;;;-4.71;94.58;100298.84;1830484;78;21514;-59
2021/01/15 05:38:18;;;;;;;37.03;17.83;;;;;;;-4.70;94.54;100306.25;1831495;78;21513;-60
2021/01/15 05:40:55;;;;;;;37.83;16.33;;;;;;;-4.72;94.38;100310.16;1832116;78;20938;-60
2021/01/15 05:43:31;;;;;;;40.10;17.00;;;;;;;-4.76;94.21;100307.00;1832029;78;21024;-59
2021/01/15 05:46:17;;;;;;;37.27;16.70;;;;;;;-4.77;94.06;100314.39;1832084;77;21135;-59
2021/01/15 05:48:48;;;;;;;41.50;17.80;;;;;;;-4.82;93.86;100315.63;1832267;78;21136;-60
2021/01/15 05:51:32;;;;;;;35.07;16.73;;;;;;;-4.87;93.59;100318.55;1831800;77;21079;-59
2021/01/15 05:54:02;;;;;;;28.00;13.07;;;;;;;-4.94;93.47;100326.72;1832343;78;21091;-60
2021/01/15 05:56:41;;;;;;;37.43;16.53;;;;;;;-4.98;93.41;100326.16;1832030;78;21111;-59
2021/01/15 05:59:16;;;;;;;35.13;15.53;;;;;;;-5.00;93.41;100329.17;1831802;77;21150;-59
2021/01/15 06:01:46;;;;;;;;;;;;;;;-4.98;93.25;100328.78;1834799;78;21352;-59
2021/01/15 06:04:22;;;;;;;39.57;16.97;;;;;;;-5.00;92.99;100326.56;1832046;78;20606;-60
2021/01/15 06:06:49;;;;;;;40.27;17.30;;;;;;;-5.04;92.67;100332.17;1830875;77;21127;-60
2021/01/15 06:09:21;;;;;;;37.87;17.37;;;;;;;-5.08;92.44;100333.37;1832009;77;21054;-59
2021/01/15 06:11:50;;;;;;;39.87;17.43;;;;;;;-5.10;92.40;100338.98;1832113;78;21023;-60
2021/01/15 06:14:22;;;;;;;37.07;16.03;;;;;;;-5.10;92.47;100340.30;1832061;78;21564;-60
2021/01/15 06:17:06;;;;;;;39.50;16.40;;;;;;;-5.06;92.60;100341.72;1832025;78;20973;-60
2021/01/15 06:19:57;;;;;;;37.90;16.40;;;;;;;-4.97;92.78;100334.91;1832000;78;21004;-59
2021/01/15 06:22:43;;;;;;;37.60;17.03;;;;;;;-4.90;92.72;100340.72;1832042;78;21484;-59
2021/01/15 06:25:26;;;;;;;37.53;17.23;;;;;;;-4.84;92.63;100347.83;1759548;81;21105;-59
2021/01/15 06:27:56;;;;;;;39.03;16.53;;;;;;;-4.79;92.50;100351.00;1781192;80;21409;-59
2021/01/15 06:30:32;;;;;;;42.53;18.00;;;;;;;-4.71;92.57;100351.17;1787581;80;20939;-60
2021/01/15 06:33:14;;;;;;;41.67;17.30;;;;;;;-4.59;92.65;100351.84;1787014;80;20990;-59
2021/01/15 06:35:43;;;;;;;36.73;17.07;;;;;;;-4.47;92.58;100368.22;1790314;80;21108;-60
2021/01/15 06:38:17;;;;;;;37.87;17.63;;;;;;;-4.36;92.38;100373.23;1767334;80;21135;-59
2021/01/15 06:40:49;;;;;;;37.60;18.07;;;;;;;-4.27;92.20;100376.45;1756996;81;21715;-60
2021/01/15 06:43:33;;;;;;;42.03;19.17;;;;;;;-4.17;91.84;100387.59;1768965;81;21091;-59
2021/01/15 06:46:03;;;;;;;40.88;18.00;;;;;;;-4.09;91.55;100393.38;1757665;81;21129;-59
2021/01/15 06:48:35;;;;;;;43.87;19.13;;;;;;;-4.04;91.02;100387.80;1768893;81;21155;-59
2021/01/15 06:51:05;;;;;;;45.77;18.73;;;;;;;-4.04;90.46;100395.25;1748198;81;21105;-59
2021/01/15 06:53:38;;;;;;;39.13;17.87;;;;;;;-4.02;90.02;100405.73;1764728;79;21504;-60
2021/01/15 06:56:06;;;;;;;41.23;18.30;;;;;;;-4.04;89.58;100407.03;1766019;81;21080;-60
2021/01/15 06:58:42;;;;;;;41.90;19.13;;;;;;;-4.05;89.27;100406.58;1766176;81;21076;-59
2021/01/15 07:01:26;;;;;;;45.03;19.97;;;;;;;-4.03;89.26;100410.11;1766231;81;21151;-60
2021/01/15 07:04:27;;;;;;;44.03;19.70;;;;;;;-3.97;89.11;100412.38;1766105;81;21064;-61
2021/01/15 07:07:16;;;;;;;47.63;20.03;;;;;;;-3.94;88.86;100418.98;1766136;81;21415;-60
2021/01/15 07:09:47;;;;;;;46.23;19.33;;;;;;;-3.89;88.92;100421.25;1766101;81;21515;-61
2021/01/15 07:12:21;;;;;;;42.27;18.93;;;;;;;-3.78;88.97;100430.20;1766105;81;21088;-61
2021/01/15 07:14:56;;;;;;;41.75;19.17;;;;;;;-3.66;88.89;100429.95;1766282;81;21148;-61
2021/01/15 07:17:29;;;;;;;45.00;20.10;;;;;;;-3.54;88.83;100432.81;1765876;81;21084;-61
2021/01/15 07:20:07;;;;;;;41.43;17.90;;;;;;;-3.45;88.77;100431.65;1765917;80;21410;-60
2021/01/15 07:22:44;;;;;;;40.10;17.70;;;;;;;-3.31;88.65;100440.19;1766006;81;21080;-61
2021/01/15 07:25:13;;;;;;;43.37;18.27;;;;;;;-3.24;88.22;100437.25;1754640;81;21151;-59
2021/01/15 07:27:40;;;;;;;40.90;18.53;;;;;;;-3.17;88.11;100447.87;1766218;80;21547;-60
2021/01/15 07:30:30;;;;;;;43.07;18.07;;;;;;;-3.11;87.95;100449.68;1766337;81;21492;-59
2021/01/15 07:32:58;;;;;;;42.43;19.47;;;;;;;-3.05;87.89;100447.59;1766367;80;21819;-60
2021/01/15 07:35:29;;;;;;;38.97;17.47;;;;;;;-3.00;87.62;100445.92;1763562;80;21191;-61
2021/01/15 07:38:14;;;;;;;36.97;16.90;;;;;;;-2.95;87.51;100452.56;1775818;80;21162;-60
2021/01/15 07:40:42;;;;;;;38.77;17.10;;;;;;;-2.91;87.48;100448.70;1780184;80;21206;-60
2021/01/15 07:43:29;;;;;;;39.27;18.47;;;;;;;-2.83;87.43;100454.48;1762500;81;21141;-60
2021/01/15 07:45:58;;;;;;;46.67;18.90;;;;;;;-2.78;87.41;100446.25;1773879;80;21380;-60
2021/01/15 07:48:26;;;;;;;43.33;18.40;;;;;;;-2.67;87.44;100453.86;1762334;81;21585;-60
2021/01/15 07:50:55;;;;;;;41.73;18.60;;;;;;;-2.58;87.34;100454.42;1793053;80;21142;-60
2021/01/15 07:53:36;;;;;;;36.00;17.10;;;;;;;-2.51;87.07;100461.52;1761492;81;21450;-60
2021/01/15 07:56:05;;;;;;;36.93;16.73;;;;;;;-2.45;86.81;100471.23;1793282;80;21067;-60
2021/01/15 07:58:41;;;;;;;37.63;16.67;;;;;;;-2.42;86.66;100467.33;1761564;81;21463;-60
2021/01/15 08:01:12;;;;;;;37.87;16.97;;;;;;;-2.38;86.49;100467.81;1793468;80;21164;-60
2021/01/15 08:03:45;;;;;;;42.90;19.10;;;;;;;-2.36;86.25;100472.66;1761323;81;21165;-61
2021/01/15 08:06:16;;;;;;;38.60;18.00;;;;;;;-2.37;86.12;100477.45;1760638;81;22377;-61
2021/01/15 08:09:07;;;;;;;34.53;16.93;;;;;;;-2.37;86.46;100480.08;1763135;81;21160;-60
2021/01/15 08:11:36;;;;;;;38.40;17.70;;;;;;;-2.31;86.58;100485.86;1752724;81;21373;-60
2021/01/15 08:14:17;;;;;;;38.80;17.17;;;;;;;-2.25;86.64;100498.20;1774379;80;21156;-60
2021/01/15 08:16:46;;;;;;;36.17;17.10;;;;;;;-2.20;86.51;100488.63;1781577;80;21181;-60
2021/01/15 08:19:16;;;;;;;34.77;16.33;;;;;;;-2.12;86.55;100490.91;1762171;80;21140;-61
2021/01/15 08:21:45;;;;;;;37.93;17.10;;;;;;;-2.03;86.43;100496.30;1776189;79;21469;-61
2021/01/15 08:24:13;;;;;;;30.80;15.20;;;;;;;-1.94;86.38;100499.89;1760711;80;21205;-60
2021/01/15 08:26:53;;;;;;;35.67;17.20;;;;;;;-1.87;86.36;100509.19;1725332;81;21081;-60
2021/01/15 08:29:29;;;;;;;33.10;14.87;;;;;;;-1.80;86.51;100510.56;1723254;81;21572;-60
2021/01/15 08:31:59;;;;;;;34.18;16.35;;;;;;;-1.68;86.66;100517.72;1755575;81;21058;-60
2021/01/15 08:34:31;;;;;;;44.00;17.77;;;;;;;-1.58;86.76;100514.34;1753394;81;21069;-60
2021/01/15 08:37:01;;;;;;;30.90;16.48;;;;;;;-1.46;86.77;100523.66;1756344;80;22271;-60
2021/01/15 08:39:28;;;;;;;35.92;16.17;;;;;;;-1.31;86.73;100516.39;1780878;80;21070;-60
2021/01/15 08:41:59;;;;;;;36.35;18.10;;;;;;;-1.14;86.59;100525.30;1781034;80;22292;-61
2021/01/15 08:44:34;;;;;;;36.58;17.32;;;;;;;-1.00;86.26;100526.30;1780817;80;21145;-62
2021/01/15 08:46:56;;;;;;;36.75;18.15;;;;;;;-0.83;86.03;100526.88;1780092;80;21076;-60
2021/01/15 08:49:24;;;;;;;37.55;18.87;;;;;;;-0.70;85.50;100523.91;1780826;80;21201;-60
2021/01/15 08:51:52;;;;;;;40.47;19.93;;;;;;;-0.59;85.14;100529.70;1780836;80;20987;-60
2021/01/15 08:54:19;;;;;;;47.05;19.90;;;;;;;-0.47;84.51;100528.05;1780793;80;21130;-60
2021/01/15 08:56:49;;;;;;;43.63;20.70;;;;;;;-0.42;84.07;100525.00;1780853;80;21050;-61
2021/01/15 08:59:28;;;;;;;33.88;17.32;;;;;;;-0.37;83.43;100532.94;1780807;80;21050;-60
2021/01/15 09:02:03;;;;;;;32.48;16.65;;;;;;;-0.38;82.77;100525.45;1780917;80;21592;-61
2021/01/15 09:04:33;;;;;;;33.28;15.80;;;;;;;-0.42;82.47;100522.81;1780722;80;21199;-59
2021/01/15 09:07:07;;;;;;;29.92;13.60;;;;;;;-0.49;82.16;100529.33;1711617;80;21132;-60
2021/01/15 09:09:36;;;;;;;37.15;16.65;;;;;;;-0.52;81.84;100528.00;1781003;80;21355;-60
2021/01/15 09:12:06;;;;;;;34.33;15.18;;;;;;;-0.56;81.98;100533.22;1780847;80;21101;-61
2021/01/15 09:14:35;;;;;;;30.85;14.68;;;;;;;-0.58;81.84;100525.33;1780831;80;22275;-60
2021/01/15 09:17:07;;;;;;;27.52;14.28;;;;;;;-0.59;81.79;100535.42;1780859;79;21556;-59
2021/01/15 09:19:35;;;;;;;32.40;15.10;;;;;;;-0.61;81.41;100530.58;1780755;80;21049;-60
2021/01/15 09:22:07;;;;;;;25.95;12.50;;;;;;;-0.63;81.41;100530.55;1780851;80;21097;-59
2021/01/15 09:24:38;;;;;;;26.93;13.05;;;;;;;-0.67;81.00;100531.41;1767616;80;21041;-60
2021/01/15 09:27:06;;;;;;;25.12;12.13;;;;;;;-0.70;81.02;100530.07;1766790;80;21646;-60
2021/01/15 09:29:34;;;;;;;28.20;12.93;;;;;;;-0.74;80.78;100530.47;1766798;80;21564;-60
2021/01/15 09:32:03;;;;;;;21.68;10.78;;;;;;;-0.78;80.83;100535.69;1766772;80;21129;-59
2021/01/15 09:34:31;;;;;;;20.27;11.12;;;;;;;-0.81;80.59;100544.47;1765892;79;21113;-59
2021/01/15 09:37:01;;;;;;;22.00;10.70;;;;;;;-0.83;80.68;100538.73;1765442;80;21101;-59
2021/01/15 09:39:29;;;;;;;19.62;9.73;;;;;;;-0.82;80.66;100537.86;1765457;80;21610;-60
2021/01/15 09:41:58;;;;;;;17.23;8.98;;;;;;;-0.85;80.15;100544.41;1763388;80;21157;-59
2021/01/15 09:44:28;;;;;;;17.05;8.63;;;;;;;-0.86;80.33;100552.77;1765176;80;21074;-59
2021/01/15 09:47:01;;;;;;;14.98;7.47;;;;;;;-0.83;79.79;100545.31;1741400;80;21128;-59
2021/01/15 09:49:32;;;;;;;19.70;9.40;;;;;;;-0.82;79.01;100553.66;1742699;80;21195;-59
2021/01/15 09:52:05;;;;;;;15.95;8.80;;;;;;;-0.80;79.32;100546.65;1780992;80;21205;-60
2021/01/15 09:54:36;;;;;;;19.70;10.03;;;;;;;-0.72;79.25;100558.14;1722457;80;21170;-59
2021/01/15 09:57:05;;;;;;;16.17;8.20;;;;;;;-0.65;78.36;100543.28;1769185;80;21495;-60
2021/01/15 09:59:33;;;;;;;15.48;7.55;;;;;;;-0.59;78.02;100557.35;1789547;80;21078;-60
2021/01/15 10:02:01;;;;;;;16.23;7.30;;;;;;;-0.58;76.73;100559.12;1789520;79;21111;-61
2021/01/15 10:04:29;;;;;;;17.20;9.13;;;;;;;-0.62;75.40;100559.97;1784672;79;21368;-61
2021/01/15 10:07:01;;;;;;;14.68;7.78;;;;;;;-0.72;75.61;100549.80;1775591;80;21083;-59
2021/01/15 10:09:30;;;;;;;16.07;8.35;;;;;;;-0.75;75.40;100554.17;1697107;81;21109;-59
2021/01/15 10:11:58;;;;;;;15.70;8.00;;;;;;;-0.79;75.53;100540.09;1782849;80;21094;-60
2021/01/15 10:14:26;;;;;;;14.68;8.28;;;;;;;-0.79;75.70;100548.41;1789308;79;21063;-61
2021/01/15 10:16:54;;;;;;;15.63;7.95;;;;;;;-0.79;75.71;100539.20;1789264;80;21373;-59
2021/01/15 10:19:22;;;;;;;14.80;7.45;;;;;;;-0.80;75.49;100540.06;1789296;80;21094;-60
2021/01/15 10:21:51;;;;;;;14.63;7.83;;;;;;;-0.79;75.46;100536.56;1789284;80;21189;-60
2021/01/15 10:24:20;;;;;;;14.75;6.70;;;;;;;-0.79;75.17;100536.56;1764609;80;21133;-60
2021/01/15 10:26:47;;;;;;;16.75;8.13;;;;;;;-0.82;75.11;100540.48;1789250;79;21475;-61
2021/01/15 10:29:15;;;;;;;14.75;8.28;;;;;;;-0.82;75.34;100541.81;1787636;80;21689;-59
2021/01/15 10:31:55;;;;;;;13.85;6.95;;;;;;;-0.88;75.30;100543.52;1771074;81;21143;-59
2021/01/15 10:34:24;;;;;;;14.38;7.30;;;;;;;-0.91;75.32;100548.77;1754444;81;21086;-59
2021/01/15 10:36:52;;;;;;;14.45;7.10;;;;;;;-0.98;74.64;100537.75;1772095;80;21125;-60
2021/01/15 10:39:21;;;;;;;14.38;7.50;;;;;;;-1.10;74.73;100539.83;1786876;80;21555;-59
2021/01/15 10:41:51;;;;;;;14.43;7.53;;;;;;;-1.26;74.97;100545.35;1776985;80;21374;-59
2021/01/15 10:44:21;;;;;;;15.43;8.05;;;;;;;-1.33;75.93;100542.22;1758686;80;22084;-59
2021/01/15 10:46:52;;;;;;;16.42;7.53;;;;;;;-1.32;76.47;100547.51;1773179;80;21175;-59
2021/01/15 10:49:22;;;;;;;14.40;7.55;;;;;;;-1.27;76.13;100533.06;1764650;80;21378;-59
2021/01/15 10:51:52;;;;;;;11.97;6.10;;;;;;;-1.26;75.57;100533.52;1771034;80;21168;-59
2021/01/15 10:54:19;;;;;;;13.50;6.00;;;;;;;-1.30;74.64;100530.41;1762601;80;21376;-59
2021/01/15 10:56:48;;;;;;;10.72;5.47;;;;;;;-1.39;74.69;100532.95;1782456;80;21073;-59
2021/01/15 10:59:16;;;;;;;10.27;5.40;;;;;;;-1.46;75.13;100516.22;1773380;80;21113;-61
2021/01/15 11:01:49;;;;;;;7.97;4.58;;;;;;;-1.45;75.79;100518.84;1782147;80;21073;-59
2021/01/15 11:04:18;;;;;;;12.03;5.80;;;;;;;-1.43;75.79;100529.40;1786689;80;21053;-59
2021/01/15 11:06:53;;;;;;;8.43;4.80;;;;;;;-1.43;76.12;100516.25;1786542;80;22285;-59
2021/01/15 11:09:24;;;;;;;13.68;6.10;;;;;;;-1.43;76.08;100512.76;1786376;80;21522;-60
2021/01/15 11:11:56;;;;;;;8.73;5.37;;;;;;;-1.46;76.35;100522.34;1783931;80;21077;-60
2021/01/15 11:14:25;;;;;;;11.78;5.97;;;;;;;-1.47;76.60;100532.88;1786524;80;21089;-60
2021/01/15 11:16:54;;;;;;;10.10;5.20;;;;;;;-1.46;76.68;100538.13;1786695;80;21093;-59
2021/01/15 11:19:23;;;;;;;12.37;6.37;;;;;;;-1.47;76.77;100540.31;1786680;80;22263;-59
2021/01/15 11:21:51;;;;;;;12.35;6.42;;;;;;;-1.47;77.02;100541.63;1786559;80;21176;-60
2021/01/15 11:24:19;;;;;;;13.53;6.10;;;;;;;-1.41;77.59;100533.38;1786697;80;21452;-59
2021/01/15 11:26:47;;;;;;;14.73;7.12;;;;;;;-1.32;77.68;100534.77;1786627;80;21658;-59
2021/01/15 11:29:15;;;;;;;11.90;6.05;;;;;;;-1.27;77.46;100546.22;1786731;80;21140;-59
2021/01/15 11:31:43;;;;;;;14.60;7.65;;;;;;;-1.24;77.46;100550.64;1786527;80;21386;-59
2021/01/15 11:34:11;;;;;;;12.37;6.55;;;;;;;-1.22;77.68;100543.64;1786521;80;21129;-58